createdAt,value
2023-11-21T00:00:13.418Z,9.30
2023-11-21T00:02:42.412Z,9.30
2023-11-21T00:05:15.109Z,9.30
2023-11-21T00:07:44.368Z,9.30
2023-11-21T00:10:15.422Z,9.30
2023-11-21T00:12:44.538Z,9.30
2023-11-21T00:15:13.636Z,9.30
2023-11-21T00:17:42.200Z,9.30
2023-11-21T00:20:14.753Z,9.30
2023-11-21T00:22:44.060Z,9.30
2023-11-21T00:25:12.918Z,9.30
2023-11-21T00:27:41.197Z,9.30
2023-11-21T00:30:10.710Z,9.30
2023-11-21T00:32:40.464Z,9.30
2023-11-21T00:35:09.231Z,9.30
2023-11-21T00:37:40.296Z,9.20
2023-11-21T00:40:10.635Z,9.20
2023-11-21T00:42:38.803Z,9.20
2023-11-21T00:45:09.184Z,9.30
2023-11-21T00:47:38.502Z,9.20
2023-11-21T00:50:08.197Z,9.20
2023-11-21T00:52:40.138Z,9.20
2023-11-21T00:55:09.833Z,9.20
2023-11-21T00:57:38.502Z,9.20
2023-11-21T01:00:10.762Z,9.20
2023-11-21T01:02:39.454Z,9.20
2023-11-21T01:05:09.728Z,9.20
2023-11-21T01:07:38.650Z,9.20
2023-11-21T01:10:09.764Z,9.20
2023-11-21T01:12:40.076Z,9.10
2023-11-21T01:15:09.551Z,9.10
2023-11-21T01:17:38.266Z,9.10
2023-11-21T01:20:12.978Z,9.10
2023-11-21T01:22:42.377Z,9.10
2023-11-21T01:25:12.963Z,9.10
2023-11-21T01:27:41.189Z,9.10
2023-11-21T01:30:11.818Z,9.10
2023-11-21T01:32:40.507Z,9.10
2023-11-21T01:35:11.424Z,9.10
2023-11-21T01:37:39.815Z,9.10
2023-11-21T01:40:14.824Z,9.10
2023-11-21T01:42:44.547Z,9.10
2023-11-21T01:45:14.448Z,9.10
2023-11-21T01:47:44.730Z,9.10
2023-11-21T01:50:18.961Z,9.10
2023-11-21T01:52:49.841Z,9.10
2023-11-21T01:55:27.755Z,9.10
2023-11-21T01:57:58.570Z,9.10
2023-11-21T02:00:29.067Z,9.10
2023-11-21T02:02:58.149Z,9.10
2023-11-21T02:05:27.214Z,9.20
2023-11-21T02:07:55.588Z,9.20
2023-11-21T02:10:25.442Z,9.20
2023-11-21T02:12:54.555Z,9.20
2023-11-21T02:15:24.368Z,9.20
2023-11-21T02:17:54.632Z,9.20
2023-11-21T02:20:26.347Z,9.20
2023-11-21T02:23:00.435Z,9.20
2023-11-21T02:25:31.405Z,9.20
2023-11-21T02:28:01.933Z,9.20
2023-11-21T02:30:32.758Z,9.20
2023-11-21T02:33:01.917Z,9.20
2023-11-21T02:35:32.604Z,9.20
2023-11-21T02:38:03.064Z,9.20
2023-11-21T02:40:32.552Z,9.20
2023-11-21T02:43:01.217Z,9.20
2023-11-21T02:45:29.978Z,9.20
2023-11-21T02:48:00.794Z,9.20
2023-11-21T02:50:29.194Z,9.20
2023-11-21T02:52:58.598Z,9.20
2023-11-21T02:55:28.457Z,9.20
2023-11-21T02:57:58.437Z,9.20
2023-11-21T03:00:27.886Z,9.20
2023-11-21T03:02:58.651Z,9.20
2023-11-21T03:05:28.157Z,9.10
2023-11-21T03:07:56.458Z,9.10
2023-11-21T03:10:24.822Z,9.10
2023-11-21T03:12:54.369Z,9.10
2023-11-21T03:15:22.532Z,9.10
2023-11-21T03:17:51.279Z,9.10
2023-11-21T03:20:19.856Z,9.10
2023-11-21T03:22:48.135Z,9.10
2023-11-21T03:25:18.346Z,9.10
2023-11-21T03:27:46.892Z,9.10
2023-11-21T03:30:17.756Z,9.10
2023-11-21T03:32:45.947Z,9.10
2023-11-21T03:35:14.335Z,9.10
2023-11-21T03:37:44.044Z,9.10
2023-11-21T03:40:14.076Z,9.10
2023-11-21T03:42:43.051Z,9.10
2023-11-21T03:45:13.538Z,9.10
2023-11-21T03:47:44.046Z,9.10
2023-11-21T03:50:12.773Z,9.10
2023-11-21T03:52:41.179Z,9.10
2023-11-21T03:55:12.882Z,9.10
2023-11-21T03:57:44.747Z,9.00
2023-11-21T04:00:14.430Z,9.00
2023-11-21T04:02:44.068Z,9.00
2023-11-21T04:05:13.369Z,9.00
2023-11-21T04:07:41.809Z,9.00
2023-11-21T04:10:13.860Z,9.00
2023-11-21T04:12:42.142Z,9.00
2023-11-21T04:15:12.278Z,8.90
2023-11-21T04:17:40.983Z,8.90
2023-11-21T04:20:12.281Z,8.90
2023-11-21T04:22:45.145Z,8.90
2023-11-21T04:25:17.405Z,8.90
2023-11-21T04:27:48.116Z,8.90
2023-11-21T04:30:18.049Z,8.80
2023-11-21T04:32:46.369Z,8.90
2023-11-21T04:35:16.006Z,8.80
2023-11-21T04:37:44.167Z,8.80
2023-11-21T04:40:13.903Z,8.80
2023-11-21T04:42:42.068Z,8.80
2023-11-21T04:45:14.244Z,8.80
2023-11-21T04:47:42.741Z,8.80
2023-11-21T04:50:12.025Z,8.80
2023-11-21T04:52:42.693Z,8.80
2023-11-21T04:55:12.035Z,8.80
2023-11-21T04:57:42.419Z,8.90
2023-11-21T05:00:13.654Z,8.90
2023-11-21T05:02:43.254Z,8.90
2023-11-21T05:05:12.629Z,8.90
2023-11-21T05:07:43.872Z,8.90
2023-11-21T05:10:15.565Z,8.90
2023-11-21T05:12:44.303Z,8.90
2023-11-21T05:15:17.051Z,8.90
2023-11-21T05:17:46.799Z,8.90
2023-11-21T05:20:19.183Z,8.90
2023-11-21T05:22:49.740Z,8.90
2023-11-21T05:25:19.436Z,8.90
2023-11-21T05:27:47.899Z,9.00
2023-11-21T05:30:16.563Z,9.00
2023-11-21T05:32:44.932Z,8.90
2023-11-21T05:35:16.654Z,8.90
2023-11-21T05:37:45.158Z,8.90
2023-11-21T05:40:15.765Z,8.90
2023-11-21T05:42:44.190Z,8.90
2023-11-21T05:45:13.412Z,8.90
2023-11-21T05:47:46.911Z,8.90
2023-11-21T05:50:17.505Z,8.90
2023-11-21T05:52:48.014Z,8.90
2023-11-21T05:55:17.995Z,8.90
2023-11-21T05:57:46.767Z,8.90
2023-11-21T06:00:21.369Z,8.90
2023-11-21T06:02:51.314Z,8.90
2023-11-21T06:05:22.108Z,8.90
2023-11-21T06:07:50.359Z,9.00
2023-11-21T06:10:21.586Z,9.00
2023-11-21T06:12:49.876Z,9.00
2023-11-21T06:15:20.360Z,9.00
2023-11-21T06:17:53.213Z,9.00
2023-11-21T06:20:23.615Z,9.00
2023-11-21T06:22:53.334Z,9.00
2023-11-21T06:25:23.358Z,9.00
2023-11-21T06:27:52.915Z,9.00
2023-11-21T06:30:22.043Z,8.90
2023-11-21T06:32:51.312Z,8.90
2023-11-21T06:35:19.677Z,8.90
2023-11-21T06:37:49.964Z,8.90
2023-11-21T06:40:21.093Z,8.90
2023-11-21T06:42:51.922Z,8.90
2023-11-21T06:45:21.094Z,8.90
2023-11-21T06:47:49.694Z,8.90
2023-11-21T06:50:18.318Z,8.80
2023-11-21T06:52:46.773Z,8.90
2023-11-21T06:55:15.141Z,8.90
2023-11-21T06:57:44.317Z,8.90
2023-11-21T07:00:18.709Z,8.90
2023-11-21T07:02:47.163Z,8.90
2023-11-21T07:05:16.562Z,9.00
2023-11-21T07:07:44.958Z,9.00
2023-11-21T07:10:13.773Z,9.00
2023-11-21T07:12:42.419Z,9.00
2023-11-21T07:15:13.498Z,9.00
2023-11-21T07:17:42.628Z,9.10
2023-11-21T07:20:12.695Z,9.10
2023-11-21T07:22:41.206Z,9.10
2023-11-21T07:25:10.879Z,9.20
2023-11-21T07:27:39.198Z,9.20
2023-11-21T07:30:10.850Z,9.30
2023-11-21T07:32:48.955Z,9.30
2023-11-21T07:35:17.588Z,9.30
2023-11-21T07:37:49.783Z,9.30
2023-11-21T07:40:18.991Z,9.30
2023-11-21T07:42:47.222Z,9.30
2023-11-21T07:45:16.309Z,9.30
2023-11-21T07:47:46.309Z,9.40
2023-11-21T07:50:21.566Z,9.40
2023-11-21T07:52:54.322Z,9.40
2023-11-21T07:55:22.652Z,9.40
2023-11-21T07:57:50.792Z,9.50
2023-11-21T08:00:22.381Z,9.50
2023-11-21T08:02:52.033Z,9.60
2023-11-21T08:05:28.288Z,9.60
2023-11-21T08:08:03.229Z,9.70
2023-11-21T08:10:33.953Z,9.70
2023-11-21T08:13:02.162Z,9.80
2023-11-21T08:15:33.631Z,9.80
2023-11-21T08:18:03.135Z,9.90
2023-11-21T08:20:31.559Z,10.00
2023-11-21T08:23:02.882Z,10.10
2023-11-21T08:25:31.558Z,10.20
2023-11-21T08:28:02.630Z,10.30
2023-11-21T08:30:31.188Z,10.40
2023-11-21T08:32:59.560Z,10.40
2023-11-21T08:35:29.323Z,10.50
2023-11-21T08:37:58.156Z,10.50
2023-11-21T08:40:26.522Z,10.50
2023-11-21T08:42:55.826Z,10.60
2023-11-21T08:45:24.384Z,10.60
2023-11-21T08:47:52.696Z,10.60
2023-11-21T08:50:21.152Z,10.60
2023-11-21T08:52:50.878Z,10.60
2023-11-21T08:55:20.998Z,10.60
2023-11-21T08:57:49.303Z,10.60
2023-11-21T09:00:18.608Z,10.70
2023-11-21T09:02:48.232Z,10.70
2023-11-21T09:05:18.070Z,10.80
2023-11-21T09:07:47.298Z,10.90
2023-11-21T09:10:17.060Z,10.90
2023-11-21T09:12:45.319Z,10.90
2023-11-21T09:15:14.045Z,10.90
2023-11-21T09:17:42.591Z,10.90
2023-11-21T09:20:12.513Z,10.90
2023-11-21T09:22:40.883Z,10.90
2023-11-21T09:25:10.580Z,10.90
2023-11-21T09:27:40.648Z,10.80
2023-11-21T09:30:11.736Z,10.80
2023-11-21T09:32:44.308Z,10.90
2023-11-21T09:35:14.981Z,10.90
2023-11-21T09:37:45.782Z,11.00
2023-11-21T09:40:18.262Z,11.00
2023-11-21T09:42:57.899Z,11.00
2023-11-21T09:45:29.711Z,11.10
2023-11-21T09:48:01.562Z,11.10
2023-11-21T09:50:34.204Z,11.20
2023-11-21T09:53:19.594Z,11.10
2023-11-21T09:55:51.394Z,11.20
2023-11-21T09:58:23.157Z,11.20
2023-11-21T10:00:55.641Z,11.20
2023-11-21T10:03:23.970Z,11.20
2023-11-21T10:05:55.621Z,11.20
2023-11-21T10:08:38.930Z,11.30
2023-11-21T10:11:17.363Z,11.40
2023-11-21T10:13:49.113Z,11.50
2023-11-21T10:16:22.280Z,11.60
2023-11-21T10:19:05.968Z,11.60
2023-11-21T10:21:40.658Z,11.60
2023-11-21T10:24:09.882Z,11.70
2023-11-21T10:26:47.741Z,11.70
2023-11-21T10:29:23.639Z,11.70
2023-11-21T10:31:55.391Z,11.70
2023-11-21T10:34:23.721Z,11.80
2023-11-21T10:36:52.525Z,11.80
2023-11-21T10:39:24.668Z,11.90
2023-11-21T10:41:55.921Z,12.00
2023-11-21T10:44:27.415Z,12.10
2023-11-21T10:46:58.408Z,12.20
2023-11-21T10:49:28.623Z,12.30
2023-11-21T10:51:57.487Z,12.30
2023-11-21T10:54:27.616Z,12.30
2023-11-21T10:57:02.957Z,12.30
2023-11-21T10:59:34.366Z,12.20
2023-11-21T11:02:09.837Z,12.20
2023-11-21T11:04:39.350Z,12.20
2023-11-21T11:07:13.759Z,12.10
2023-11-21T11:09:42.327Z,12.20
2023-11-21T11:12:11.254Z,12.30
2023-11-21T11:14:44.920Z,12.40
2023-11-21T11:17:13.699Z,12.50
2023-11-21T11:19:42.803Z,12.60
2023-11-21T11:22:31.841Z,12.50
2023-11-21T11:25:41.380Z,12.50
2023-11-21T11:28:16.569Z,12.50
2023-11-21T11:31:05.138Z,12.50
2023-11-21T11:33:43.506Z,12.40
2023-11-21T11:36:22.497Z,12.40
2023-11-21T11:38:51.289Z,12.40
2023-11-21T11:41:28.713Z,12.40
2023-11-21T11:44:00.367Z,12.50
2023-11-21T11:46:46.393Z,12.50
2023-11-21T11:49:26.572Z,12.50
2023-11-21T11:52:40.982Z,12.40
2023-11-21T11:55:12.392Z,12.40
2023-11-21T11:57:41.724Z,12.40
2023-11-21T12:00:17.778Z,12.40
2023-11-21T12:02:49.862Z,12.40
2023-11-21T12:05:20.413Z,12.30
2023-11-21T12:07:54.564Z,12.30
2023-11-21T12:10:26.588Z,12.30
2023-11-21T12:12:57.524Z,12.30
2023-11-21T12:15:26.594Z,12.20
2023-11-21T12:17:56.546Z,12.20
2023-11-21T12:20:26.556Z,12.20
2023-11-21T12:22:57.289Z,12.20
2023-11-21T12:25:30.064Z,12.10
2023-11-21T12:27:58.966Z,12.10
2023-11-21T12:30:31.930Z,12.00
2023-11-21T12:33:03.179Z,11.90
2023-11-21T12:35:35.168Z,11.90
2023-11-21T12:38:05.950Z,11.80
2023-11-21T12:40:34.680Z,11.80
2023-11-21T12:43:05.275Z,11.70
2023-11-21T12:45:33.865Z,11.70
2023-11-21T12:48:09.194Z,11.70
2023-11-21T12:50:38.974Z,11.70
2023-11-21T12:53:09.804Z,11.80
2023-11-21T12:55:39.609Z,11.80
2023-11-21T12:58:11.893Z,11.70
2023-11-21T13:00:44.529Z,11.70
2023-11-21T13:03:18.723Z,11.60
2023-11-21T13:05:52.193Z,11.60
2023-11-21T13:08:23.941Z,11.60
2023-11-21T13:10:56.633Z,11.60
2023-11-21T13:13:26.549Z,11.60
2023-11-21T13:15:58.039Z,11.60
2023-11-21T13:18:28.675Z,11.60
2023-11-21T13:20:59.966Z,11.60
2023-11-21T13:23:30.273Z,11.60
2023-11-21T13:26:04.946Z,11.70
2023-11-21T13:28:36.955Z,11.70
2023-11-21T13:31:21.849Z,11.80
2023-11-21T13:33:57.225Z,11.80
2023-11-21T13:36:31.272Z,11.90
2023-11-21T13:39:00.223Z,12.00
2023-11-21T13:41:32.309Z,11.90
2023-11-21T13:44:05.037Z,11.90
2023-11-21T13:46:38.530Z,11.90
2023-11-21T13:49:11.155Z,11.80
2023-11-21T13:51:45.925Z,11.80
2023-11-21T13:54:14.647Z,11.70
2023-11-21T13:56:46.039Z,11.70
2023-11-21T13:59:21.919Z,11.70
2023-11-21T14:01:57.518Z,11.70
2023-11-21T14:04:52.102Z,11.70
2023-11-21T14:07:27.424Z,11.60
2023-11-21T14:09:55.915Z,11.60
2023-11-21T14:12:24.548Z,11.60
2023-11-21T14:14:52.737Z,11.70
2023-11-21T14:17:23.420Z,11.90
2023-11-21T14:19:56.533Z,12.20
2023-11-21T14:22:26.931Z,12.40
2023-11-21T14:24:56.943Z,12.60
2023-11-21T14:27:25.559Z,12.60
2023-11-21T14:29:54.430Z,12.40
2023-11-21T14:32:23.005Z,12.20
2023-11-21T14:34:53.129Z,12.10
2023-11-21T14:37:21.514Z,12.00
2023-11-21T14:39:51.001Z,12.00
2023-11-21T14:42:26.604Z,12.00
2023-11-21T14:44:58.456Z,11.90
2023-11-21T14:47:28.267Z,11.90
2023-11-21T14:50:01.060Z,11.90
2023-11-21T14:52:35.596Z,11.80
2023-11-21T14:55:22.812Z,11.80
2023-11-21T14:57:51.205Z,11.70
2023-11-21T15:00:42.200Z,11.70
2023-11-21T15:03:12.010Z,11.60
2023-11-21T15:05:41.641Z,11.50
2023-11-21T15:08:22.658Z,11.40
2023-11-21T15:10:54.679Z,11.30
2023-11-21T15:13:25.266Z,11.20
2023-11-21T15:15:55.183Z,11.10
2023-11-21T15:18:23.680Z,11.00
2023-11-21T15:20:53.551Z,10.90
2023-11-21T15:23:24.868Z,10.80
2023-11-21T15:25:54.137Z,10.70
2023-11-21T15:28:22.354Z,10.60
2023-11-21T15:30:52.638Z,10.50
2023-11-21T15:33:20.963Z,10.40
2023-11-21T15:35:49.272Z,10.30
2023-11-21T15:38:18.994Z,10.20
2023-11-21T15:40:47.481Z,10.10
2023-11-21T15:43:15.902Z,10.00
2023-11-21T15:45:44.520Z,9.90
2023-11-21T15:48:12.807Z,9.90
2023-11-21T15:50:41.103Z,9.80
2023-11-21T15:53:09.332Z,9.70
2023-11-21T15:55:43.977Z,9.60
2023-11-21T15:58:12.569Z,9.60
2023-11-21T16:00:42.590Z,9.50
2023-11-21T16:03:13.101Z,9.50
2023-11-21T16:05:42.552Z,9.40
2023-11-21T16:08:11.129Z,9.40
2023-11-21T16:10:40.728Z,9.30
2023-11-21T16:13:10.193Z,9.30
2023-11-21T16:15:38.905Z,9.30
2023-11-21T16:18:07.291Z,9.20
2023-11-21T16:20:38.854Z,9.20
2023-11-21T16:23:07.151Z,9.20
2023-11-21T16:25:35.870Z,9.20
2023-11-21T16:28:06.972Z,9.20
2023-11-21T16:30:36.222Z,9.20
2023-11-21T16:33:04.979Z,9.20
2023-11-21T16:35:33.336Z,9.20
2023-11-21T16:38:01.697Z,9.10
2023-11-21T16:40:30.238Z,9.10
2023-11-21T16:42:59.136Z,9.10
2023-11-21T16:45:28.701Z,9.00
2023-11-21T16:47:57.048Z,9.00
2023-11-21T16:50:26.369Z,9.00
2023-11-21T16:52:54.874Z,8.90
2023-11-21T16:55:24.765Z,8.90
2023-11-21T16:57:53.018Z,8.90
2023-11-21T17:00:23.657Z,8.90
2023-11-21T17:02:53.537Z,8.90
2023-11-21T17:05:21.956Z,8.90
2023-11-21T17:07:51.067Z,9.00
2023-11-21T17:10:21.324Z,9.00
2023-11-21T17:12:50.577Z,9.00
2023-11-21T17:15:20.034Z,9.00
2023-11-21T17:17:48.350Z,9.00
2023-11-21T17:20:18.532Z,9.00
2023-11-21T17:22:46.768Z,9.00
2023-11-21T17:25:15.010Z,9.00
2023-11-21T17:27:43.610Z,9.00
2023-11-21T17:30:12.933Z,9.10
2023-11-21T17:32:41.541Z,9.10
2023-11-21T17:35:12.263Z,9.10
2023-11-21T17:37:41.988Z,9.10
2023-11-21T17:40:11.904Z,9.10
2023-11-21T17:42:40.800Z,9.10
2023-11-21T17:45:10.575Z,9.10
2023-11-21T17:47:38.900Z,9.10
2023-11-21T17:50:07.597Z,9.20
2023-11-21T17:52:35.864Z,9.20
2023-11-21T17:55:06.843Z,9.20
2023-11-21T17:57:36.738Z,9.20
2023-11-21T18:00:07.171Z,9.20
2023-11-21T18:02:38.684Z,9.20
2023-11-21T18:05:12.256Z,9.20
2023-11-21T18:07:41.171Z,9.20
2023-11-21T18:10:11.868Z,9.20
2023-11-21T18:12:40.116Z,9.30
2023-11-21T18:15:09.714Z,9.30
2023-11-21T18:17:37.871Z,9.30
2023-11-21T18:20:07.805Z,9.30
2023-11-21T18:22:36.201Z,9.30
2023-11-21T18:25:05.147Z,9.30
2023-11-21T18:27:34.755Z,9.30
2023-11-21T18:30:03.802Z,9.30
2023-11-21T18:32:32.114Z,9.30
2023-11-21T18:35:00.652Z,9.30
2023-11-21T18:37:28.950Z,9.30
2023-11-21T18:39:57.917Z,9.30
2023-11-21T18:42:28.927Z,9.30
2023-11-21T18:45:00.049Z,9.40
2023-11-21T18:47:29.173Z,9.30
2023-11-21T18:49:58.114Z,9.40
2023-11-21T18:52:28.770Z,9.40
2023-11-21T18:54:58.496Z,9.40
2023-11-21T18:57:27.856Z,9.40
2023-11-21T18:59:56.085Z,9.40
2023-11-21T19:02:27.051Z,9.40
2023-11-21T19:04:55.729Z,9.40
2023-11-21T19:07:24.689Z,9.40
2023-11-21T19:09:54.256Z,9.40
2023-11-21T19:12:22.517Z,9.40
2023-11-21T19:14:52.531Z,9.40
2023-11-21T19:17:21.601Z,9.30
2023-11-21T19:19:51.434Z,9.30
2023-11-21T19:22:20.422Z,9.40
2023-11-21T19:24:48.948Z,9.30
2023-11-21T19:27:17.426Z,9.30
2023-11-21T19:29:46.466Z,9.30
2023-11-21T19:32:14.853Z,9.30
2023-11-21T19:34:43.452Z,9.30
2023-11-21T19:37:13.265Z,9.30
2023-11-21T19:39:41.751Z,9.20
2023-11-21T19:42:10.016Z,9.20
2023-11-21T19:44:39.360Z,9.20
2023-11-21T19:47:07.962Z,9.20
2023-11-21T19:49:36.202Z,9.20
2023-11-21T19:52:07.486Z,9.20
2023-11-21T19:54:37.064Z,9.20
2023-11-21T19:57:08.419Z,9.20
2023-11-21T19:59:40.622Z,9.20
2023-11-21T20:02:09.261Z,9.20
2023-11-21T20:04:38.005Z,9.20
2023-11-21T20:07:06.389Z,9.20
2023-11-21T20:09:36.788Z,9.20
2023-11-21T20:12:06.209Z,9.20
2023-11-21T20:14:35.765Z,9.20
2023-11-21T20:17:05.539Z,9.20
2023-11-21T20:19:33.820Z,9.20
2023-11-21T20:22:04.823Z,9.20
2023-11-21T20:24:35.721Z,9.10
2023-11-21T20:27:06.429Z,9.20
2023-11-21T20:29:35.357Z,9.10
2023-11-21T20:32:06.310Z,9.10
2023-11-21T20:34:34.571Z,9.10
2023-11-21T20:37:03.332Z,9.10
2023-11-21T20:39:31.605Z,9.10
2023-11-21T20:41:59.821Z,9.10
2023-11-21T20:44:29.580Z,9.10
2023-11-21T20:47:03.773Z,9.00
2023-11-21T20:49:45.342Z,9.00
2023-11-21T20:52:17.104Z,8.90
2023-11-21T20:54:46.101Z,8.90
2023-11-21T20:57:14.378Z,8.80
2023-11-21T20:59:44.170Z,8.70
2023-11-21T21:02:12.597Z,8.70
2023-11-21T21:04:40.768Z,8.60
2023-11-21T21:07:09.097Z,8.60
2023-11-21T21:09:39.482Z,8.50
2023-11-21T21:12:08.798Z,8.50
2023-11-21T21:14:36.952Z,8.40
2023-11-21T21:17:07.313Z,8.40
2023-11-21T21:19:35.876Z,8.30
2023-11-21T21:22:04.136Z,8.30
2023-11-21T21:24:32.448Z,8.30
2023-11-21T21:27:00.790Z,8.20
2023-11-21T21:29:29.302Z,8.20
2023-11-21T21:31:57.573Z,8.10
2023-11-21T21:34:27.562Z,8.00
2023-11-21T21:36:55.827Z,8.00
2023-11-21T21:39:24.103Z,7.90
2023-11-21T21:41:53.754Z,7.90
2023-11-21T21:44:22.222Z,7.80
2023-11-21T21:46:50.807Z,7.80
2023-11-21T21:49:19.424Z,7.70
2023-11-21T21:51:50.322Z,7.60
2023-11-21T21:54:18.712Z,7.60
2023-11-21T21:56:47.006Z,7.50
2023-11-21T21:59:15.402Z,7.50
2023-11-21T22:01:46.161Z,7.40
2023-11-21T22:04:16.899Z,7.40
2023-11-21T22:06:45.248Z,7.40
2023-11-21T22:09:17.500Z,7.30
2023-11-21T22:11:45.904Z,7.30
2023-11-21T22:14:14.203Z,7.30
2023-11-21T22:16:42.717Z,7.20
2023-11-21T22:19:11.513Z,7.20
2023-11-21T22:21:39.811Z,7.20
2023-11-21T22:24:09.919Z,7.20
2023-11-21T22:26:40.494Z,7.10
2023-11-21T22:29:11.257Z,7.10
2023-11-21T22:31:43.532Z,7.10
2023-11-21T22:34:12.972Z,7.10
2023-11-21T22:36:41.320Z,7.00
2023-11-21T22:39:09.999Z,7.00
2023-11-21T22:41:40.134Z,6.90
2023-11-21T22:44:08.550Z,6.80
2023-11-21T22:46:43.002Z,6.80
2023-11-21T22:49:12.335Z,6.70
2023-11-21T22:51:40.762Z,6.70
2023-11-21T22:54:14.552Z,6.60
2023-11-21T22:56:44.205Z,6.60
2023-11-21T22:59:12.561Z,6.60
2023-11-21T23:01:40.896Z,6.50
2023-11-21T23:04:09.907Z,6.50
2023-11-21T23:06:41.667Z,6.50
2023-11-21T23:09:11.080Z,6.50
2023-11-21T23:11:39.360Z,6.50
2023-11-21T23:14:09.250Z,6.40
2023-11-21T23:16:37.531Z,6.40
2023-11-21T23:19:06.103Z,6.40
2023-11-21T23:21:35.757Z,6.40
2023-11-21T23:24:09.127Z,6.40
2023-11-21T23:26:38.150Z,6.40
2023-11-21T23:29:08.046Z,6.30
2023-11-21T23:31:36.760Z,6.30
2023-11-21T23:34:10.337Z,6.30
2023-11-21T23:36:39.033Z,6.30
2023-11-21T23:39:08.413Z,6.20
2023-11-21T23:41:36.900Z,6.20
2023-11-21T23:44:05.854Z,6.20
2023-11-21T23:46:36.124Z,6.20
2023-11-21T23:49:05.324Z,6.20
2023-11-21T23:51:32.572Z,6.10
2023-11-21T23:54:00.753Z,6.10
2023-11-21T23:56:28.970Z,6.10
2023-11-21T23:58:57.747Z,6.10
